All Spectrum Aviation - Van Nuys Airport - KVNY

HOME

Condor Squadron KVNY Webcam

Visit our Electronics Store

Condor Squadron Webcam - Van Nuys Airport - KVNY
Picture taken: Tue, 15 Oct 2019 12:49:20 -0700
YouTube Channel!    Latest Timelapse Movie    Full Size Image    Regular Size Image    

2019/10/15 18:51 KVNY 151851Z 00000KT 10SM CLR 27/07 A3001 RMK AO2 SLP155 T02720067

HOME

Condor Squadron KVNY Webcam

Visit our Electronics Store